createdAt,value
2022-12-17T00:01:45.929Z,90.71
2022-12-17T00:04:30.663Z,91.11
2022-12-17T00:07:15.400Z,92.38
2022-12-17T00:10:00.146Z,90.83
2022-12-17T00:12:44.905Z,90.17
2022-12-17T00:15:29.616Z,90.10
2022-12-17T00:18:24.510Z,89.98
2022-12-17T00:21:16.888Z,89.82
2022-12-17T00:24:02.527Z,89.99
2022-12-17T00:26:47.825Z,89.46
2022-12-17T00:29:33.022Z,90.93
2022-12-17T00:32:18.316Z,90.00
2022-12-17T00:35:03.505Z,90.06
2022-12-17T00:37:48.754Z,90.14
2022-12-17T00:40:34.143Z,89.57
2022-12-17T00:43:18.740Z,89.49
2022-12-17T00:46:04.106Z,89.30
2022-12-17T00:48:49.373Z,90.19
2022-12-17T00:51:34.730Z,89.38
2022-12-17T00:54:19.397Z,89.57
2022-12-17T00:57:04.096Z,90.16
2022-12-17T00:59:48.973Z,89.51
2022-12-17T01:02:33.818Z,90.95
2022-12-17T01:05:18.938Z,90.60
2022-12-17T01:08:03.657Z,90.43
2022-12-17T01:10:48.396Z,89.99
2022-12-17T01:13:37.466Z,89.21
2022-12-17T01:16:28.220Z,89.01
2022-12-17T01:19:14.022Z,89.04
2022-12-17T01:21:59.997Z,89.09
2022-12-17T01:24:45.194Z,89.10
2022-12-17T01:27:29.990Z,88.88
2022-12-17T01:30:14.657Z,89.48
2022-12-17T01:32:59.397Z,89.08
2022-12-17T01:35:44.179Z,89.32
2022-12-17T01:38:38.096Z,90.84
2022-12-17T01:41:24.392Z,90.37
2022-12-17T01:44:09.362Z,90.25
2022-12-17T01:46:59.778Z,89.82
2022-12-17T01:49:46.529Z,90.49
2022-12-17T01:52:34.179Z,90.64
2022-12-17T01:55:21.585Z,90.64
2022-12-17T01:58:20.481Z,91.01
2022-12-17T02:01:05.148Z,90.63
2022-12-17T02:03:49.945Z,90.76
2022-12-17T02:06:39.609Z,91.10
2022-12-17T02:09:49.111Z,91.35
2022-12-17T02:12:43.551Z,91.85
2022-12-17T02:15:41.541Z,91.65
2022-12-17T02:18:32.079Z,92.16
2022-12-17T02:21:18.410Z,91.86
2022-12-17T02:24:30.237Z,91.29
2022-12-17T02:27:23.238Z,91.18
2022-12-17T02:30:12.587Z,91.26
2022-12-17T02:32:59.945Z,91.16
2022-12-17T02:35:50.702Z,90.93
2022-12-17T02:38:44.001Z,90.90
2022-12-17T02:41:34.318Z,90.80
2022-12-17T02:44:19.475Z,90.36
2022-12-17T02:47:06.718Z,90.61
2022-12-17T02:49:51.486Z,90.70
2022-12-17T02:52:39.436Z,90.82
2022-12-17T02:55:25.766Z,91.02
2022-12-17T02:58:10.927Z,91.19
2022-12-17T03:00:55.868Z,91.33
2022-12-17T03:03:41.596Z,90.76
2022-12-17T03:06:27.933Z,91.24
2022-12-17T03:09:12.549Z,90.44
2022-12-17T03:11:57.303Z,90.09
2022-12-17T03:14:42.144Z,90.11
2022-12-17T03:17:26.893Z,89.50
2022-12-17T03:20:11.754Z,89.53
2022-12-17T03:22:56.495Z,89.44
2022-12-17T03:25:41.389Z,89.65
2022-12-17T03:28:29.000Z,90.25
2022-12-17T03:31:16.787Z,90.48
2022-12-17T03:34:01.465Z,90.38
2022-12-17T03:36:46.659Z,90.40
2022-12-17T03:39:31.435Z,90.22
2022-12-17T03:42:16.282Z,90.43
2022-12-17T03:45:00.977Z,90.21
2022-12-17T03:47:45.861Z,90.75
2022-12-17T03:50:30.641Z,90.19
2022-12-17T03:53:15.485Z,89.72
2022-12-17T03:56:00.325Z,89.55
2022-12-17T03:58:45.110Z,89.21
2022-12-17T04:01:29.973Z,89.68
2022-12-17T04:04:15.038Z,90.31
2022-12-17T04:06:59.864Z,89.76
2022-12-17T04:09:44.778Z,89.21
2022-12-17T04:12:29.602Z,89.28
2022-12-17T04:15:14.361Z,89.36
2022-12-17T04:17:59.057Z,89.00
2022-12-17T04:20:43.816Z,89.17
2022-12-17T04:23:28.628Z,89.04
2022-12-17T04:26:13.419Z,88.84
2022-12-17T04:28:58.181Z,89.10
2022-12-17T04:31:42.958Z,89.35
2022-12-17T04:34:27.653Z,88.40
2022-12-17T04:37:12.372Z,88.86
2022-12-17T04:39:57.203Z,90.02
2022-12-17T04:42:41.842Z,89.45
2022-12-17T04:45:27.156Z,88.58
2022-12-17T04:48:20.111Z,88.11
2022-12-17T04:51:04.943Z,88.28
2022-12-17T04:53:52.074Z,88.81
2022-12-17T04:56:37.024Z,88.58
2022-12-17T04:59:21.778Z,88.66
2022-12-17T05:02:06.698Z,88.83
2022-12-17T05:04:51.769Z,88.97
2022-12-17T05:07:36.581Z,89.74
2022-12-17T05:10:21.994Z,91.59
2022-12-17T06:30:40.132Z,89.61
2022-12-17T06:33:27.216Z,89.69
2022-12-17T06:36:21.345Z,90.06
2022-12-17T06:39:07.039Z,89.73
2022-12-17T06:41:51.807Z,89.52
2022-12-17T06:44:37.258Z,89.52
2022-12-17T06:47:21.948Z,89.11
2022-12-17T06:50:06.756Z,89.16
2022-12-17T06:52:51.526Z,89.21
2022-12-17T06:55:36.474Z,89.46
2022-12-17T06:58:21.683Z,89.54
2022-12-17T07:01:06.571Z,89.35
2022-12-17T07:03:51.306Z,89.19
2022-12-17T07:06:36.019Z,89.51
2022-12-17T07:09:20.681Z,89.62
2022-12-17T07:12:05.479Z,90.18
2022-12-17T07:14:50.437Z,90.55
2022-12-17T07:17:35.121Z,90.27
2022-12-17T07:20:19.881Z,90.05
2022-12-17T07:23:04.587Z,90.06
2022-12-17T07:25:51.972Z,89.81
2022-12-17T07:28:37.358Z,89.68
2022-12-17T07:31:22.571Z,89.49
2022-12-17T07:34:07.329Z,89.38
2022-12-17T07:36:51.953Z,89.94
2022-12-17T07:39:37.247Z,89.59
2022-12-17T07:42:21.979Z,89.86
2022-12-17T07:45:06.880Z,89.63
2022-12-17T07:47:51.791Z,89.17
2022-12-17T07:50:36.518Z,88.89
2022-12-17T07:53:22.997Z,89.20
2022-12-17T07:56:08.187Z,89.56
2022-12-17T07:58:52.868Z,89.71
2022-12-17T08:01:37.683Z,90.32
2022-12-17T08:04:22.802Z,90.25
2022-12-17T08:07:13.328Z,90.10
2022-12-17T08:09:59.191Z,89.38
2022-12-17T08:12:44.086Z,89.75
2022-12-17T08:15:28.829Z,90.02
2022-12-17T08:18:22.954Z,90.21
2022-12-17T08:21:11.265Z,90.18
2022-12-17T08:24:00.462Z,90.34
2022-12-17T08:26:48.083Z,91.52
2022-12-17T08:29:38.051Z,91.47
2022-12-17T08:32:22.783Z,91.39
2022-12-17T08:35:07.507Z,91.87
2022-12-17T08:37:52.435Z,91.37
2022-12-17T08:40:37.267Z,91.95
2022-12-17T08:43:22.152Z,90.33
2022-12-17T08:46:07.928Z,90.89
2022-12-17T08:48:53.282Z,90.44
2022-12-17T08:51:38.502Z,89.81
2022-12-17T08:54:23.265Z,89.64
2022-12-17T08:57:08.007Z,90.27
2022-12-17T08:59:52.762Z,90.54
2022-12-17T09:02:37.691Z,91.76
2022-12-17T09:05:23.117Z,89.21
2022-12-17T09:08:07.989Z,87.84
2022-12-17T09:10:52.640Z,89.42
2022-12-17T09:13:37.741Z,88.32
2022-12-17T09:16:23.301Z,87.98
2022-12-17T09:19:09.053Z,87.37
2022-12-17T09:21:53.873Z,89.67
2022-12-17T09:24:38.660Z,87.98
2022-12-17T09:27:37.109Z,89.20
2022-12-17T09:30:23.331Z,89.17
2022-12-17T09:33:08.351Z,89.51
2022-12-17T09:35:56.329Z,89.80
2022-12-17T09:38:41.055Z,88.28
2022-12-17T09:41:47.530Z,88.47
2022-12-17T09:44:48.566Z,90.75
2022-12-17T09:47:52.465Z,90.81
2022-12-17T09:50:37.501Z,90.33
2022-12-17T09:53:36.287Z,90.38
2022-12-17T09:56:23.178Z,91.04
2022-12-17T09:59:07.695Z,90.43
2022-12-17T10:01:53.558Z,90.20
2022-12-17T10:04:58.432Z,87.51
2022-12-17T10:07:47.281Z,85.02
2022-12-17T10:10:40.481Z,87.23
2022-12-17T10:13:41.980Z,88.48
2022-12-17T10:16:42.730Z,87.89
2022-12-17T10:19:48.781Z,88.72
2022-12-17T10:22:39.181Z,87.90
2022-12-17T10:25:40.151Z,88.46
2022-12-17T10:28:30.125Z,90.49
2022-12-17T10:31:15.400Z,89.56
2022-12-17T10:34:01.379Z,88.06
2022-12-17T10:36:47.569Z,88.90
2022-12-17T10:39:41.120Z,87.45
2022-12-17T10:42:41.954Z,88.19
2022-12-17T10:45:38.753Z,87.24
2022-12-17T10:48:24.437Z,89.19
2022-12-17T10:51:09.557Z,88.41
2022-12-17T10:53:55.341Z,86.22
2022-12-17T10:56:43.482Z,87.87
2022-12-17T10:59:41.180Z,89.03
2022-12-17T11:02:38.371Z,89.72
2022-12-17T11:05:32.450Z,90.26
2022-12-17T11:08:19.133Z,85.18
2022-12-17T11:11:05.509Z,85.11
2022-12-17T11:13:52.425Z,86.43
2022-12-17T11:16:43.002Z,85.84
2022-12-17T11:19:28.137Z,87.47
2022-12-17T11:22:18.550Z,87.09
2022-12-17T11:25:16.917Z,88.84
2022-12-17T11:28:06.521Z,89.10
2022-12-17T11:31:03.037Z,86.72
2022-12-17T11:34:01.433Z,86.11
2022-12-17T11:36:59.842Z,87.28
2022-12-17T11:39:47.894Z,86.11
2022-12-17T11:42:32.655Z,84.06
2022-12-17T11:45:41.414Z,83.82
2022-12-17T11:48:34.024Z,85.14
2022-12-17T11:51:37.442Z,87.08
2022-12-17T11:54:41.070Z,85.04
2022-12-17T11:58:24.815Z,85.71
2022-12-17T12:01:23.055Z,86.91
2022-12-17T12:04:49.410Z,85.49
2022-12-17T12:08:01.357Z,85.86
2022-12-17T12:11:04.173Z,84.79
2022-12-17T12:14:10.277Z,84.04
2022-12-17T12:17:08.480Z,83.68
2022-12-17T12:20:03.538Z,84.05
2022-12-17T12:23:04.621Z,85.85
2022-12-17T12:26:16.545Z,87.45
2022-12-17T12:29:38.424Z,84.95
2022-12-17T12:32:39.053Z,88.04
2022-12-17T12:35:32.029Z,86.47
2022-12-17T12:38:18.922Z,87.51
2022-12-17T12:41:20.410Z,88.71
2022-12-17T12:44:13.792Z,86.79
2022-12-17T12:47:31.295Z,85.38
2022-12-17T12:50:31.244Z,84.31
2022-12-17T12:53:17.371Z,84.69
2022-12-17T12:56:07.166Z,83.12
2022-12-17T12:58:53.417Z,84.15
2022-12-17T13:01:39.150Z,83.47
2022-12-17T13:04:55.155Z,83.04
2022-12-17T13:07:28.207Z,84.79
2022-12-17T13:09:57.182Z,84.49
2022-12-17T13:12:29.724Z,85.18
2022-12-17T13:14:58.766Z,84.96
2022-12-17T13:18:01.939Z,84.65
2022-12-17T13:20:28.252Z,84.82
2022-12-17T13:23:09.879Z,85.91
2022-12-17T13:25:37.263Z,85.14
2022-12-17T13:28:03.954Z,85.28
2022-12-17T13:30:37.313Z,85.59
2022-12-17T13:33:37.990Z,85.05
2022-12-17T13:36:22.823Z,84.32
2022-12-17T13:39:00.734Z,84.13
2022-12-17T13:41:33.183Z,84.46
2022-12-17T13:44:04.482Z,85.23
2022-12-17T13:46:47.518Z,84.82
2022-12-17T13:49:28.189Z,85.73
2022-12-17T13:52:21.972Z,85.04
2022-12-17T13:54:48.230Z,86.22
2022-12-17T13:57:24.854Z,85.16
2022-12-17T13:59:53.746Z,84.10
2022-12-17T14:02:33.529Z,84.21
2022-12-17T14:05:07.512Z,84.25
2022-12-17T14:07:38.244Z,83.85
2022-12-17T14:10:05.906Z,84.26
2022-12-17T14:12:35.146Z,84.78
2022-12-17T14:15:08.177Z,85.21
2022-12-17T14:17:49.273Z,86.32
2022-12-17T14:20:25.262Z,85.60
2022-12-17T14:22:59.704Z,85.95
2022-12-17T14:25:33.946Z,86.01
2022-12-17T14:28:22.607Z,86.63
2022-12-17T14:31:24.942Z,86.46
2022-12-17T14:33:37.652Z,86.31
2022-12-17T14:36:14.900Z,85.37
2022-12-17T14:38:54.237Z,86.34
2022-12-17T14:41:40.510Z,86.30
2022-12-17T14:44:07.432Z,86.06
2022-12-17T14:46:34.760Z,86.08
2022-12-17T14:49:04.733Z,85.92
2022-12-17T14:51:41.169Z,86.25
2022-12-17T14:54:13.730Z,86.76
2022-12-17T14:56:41.824Z,86.14
2022-12-17T14:59:37.977Z,86.44
2022-12-17T15:02:23.946Z,86.47
2022-12-17T15:04:52.565Z,85.93
2022-12-17T15:07:25.278Z,86.19
2022-12-17T15:09:52.956Z,85.01
2022-12-17T15:12:24.034Z,85.04
2022-12-17T15:14:50.678Z,85.56
2022-12-17T15:17:17.215Z,85.58
2022-12-17T15:19:43.884Z,85.93
2022-12-17T15:22:16.971Z,85.63
2022-12-17T15:24:44.488Z,85.64
2022-12-17T15:27:16.309Z,86.19
2022-12-17T15:29:44.066Z,86.09
2022-12-17T15:32:22.959Z,85.89
2022-12-17T15:34:50.371Z,86.61
2022-12-17T15:37:21.074Z,86.86
2022-12-17T15:39:49.008Z,87.22
2022-12-17T15:42:33.796Z,87.07
2022-12-17T15:45:00.104Z,86.72
2022-12-17T15:47:26.503Z,86.96
2022-12-17T15:49:52.787Z,86.84
2022-12-17T15:52:19.213Z,86.55
2022-12-17T15:54:45.521Z,86.47
2022-12-17T15:57:18.228Z,87.07
2022-12-17T15:59:44.887Z,86.93
2022-12-17T16:02:11.652Z,87.26
2022-12-17T16:04:38.112Z,87.09
2022-12-17T16:07:05.217Z,86.67
2022-12-17T16:09:31.528Z,86.86
2022-12-17T16:11:57.894Z,86.89
2022-12-17T16:14:24.625Z,87.07
2022-12-17T16:16:51.544Z,87.79
2022-12-17T16:19:18.180Z,87.87
2022-12-17T16:21:46.897Z,87.89
2022-12-17T16:24:13.466Z,88.50
2022-12-17T16:26:40.040Z,88.15
2022-12-17T16:29:06.627Z,87.92
2022-12-17T16:31:33.231Z,88.56
2022-12-17T16:33:59.603Z,88.76
2022-12-17T16:36:25.981Z,88.08
2022-12-17T16:38:53.901Z,88.67
2022-12-17T16:41:21.693Z,89.38
2022-12-17T16:43:48.051Z,89.96
2022-12-17T16:46:24.596Z,89.85
2022-12-17T16:48:50.943Z,90.17
2022-12-17T16:51:25.884Z,90.03
2022-12-17T16:53:55.232Z,89.36
2022-12-17T16:56:27.457Z,89.02
2022-12-17T16:58:57.230Z,89.08
2022-12-17T17:01:26.341Z,89.50
2022-12-17T17:03:53.104Z,89.17
2022-12-17T17:06:20.314Z,89.16
2022-12-17T17:08:47.258Z,88.92
2022-12-17T17:11:17.798Z,89.10
2022-12-17T17:13:44.900Z,89.03
2022-12-17T17:16:11.977Z,87.93
2022-12-17T17:18:39.529Z,88.38
2022-12-17T17:21:28.869Z,88.46
2022-12-17T17:23:59.619Z,88.51
2022-12-17T17:26:28.403Z,88.43
2022-12-17T17:28:55.272Z,88.76
2022-12-17T17:31:22.026Z,88.64
2022-12-17T17:33:50.492Z,88.26
2022-12-17T17:36:27.388Z,88.03
2022-12-17T17:38:58.298Z,88.27
2022-12-17T17:41:27.444Z,88.56
2022-12-17T17:43:56.638Z,88.62
2022-12-17T17:46:23.217Z,88.98
2022-12-17T17:48:56.648Z,89.69
2022-12-17T17:51:52.007Z,88.56
2022-12-17T17:54:14.330Z,88.82
2022-12-17T17:56:42.130Z,87.87
2022-12-17T17:59:12.349Z,88.35
2022-12-17T18:01:41.863Z,88.47
2022-12-17T18:04:12.143Z,88.62
2022-12-17T18:06:43.000Z,88.85
2022-12-17T18:09:19.549Z,89.03
2022-12-17T18:11:45.933Z,89.13
2022-12-17T18:14:15.277Z,88.79
2022-12-17T18:16:48.609Z,88.81
2022-12-17T18:19:20.590Z,88.73
2022-12-17T18:21:47.575Z,88.55
2022-12-17T18:24:21.140Z,88.43
2022-12-17T18:26:47.846Z,88.74
2022-12-17T18:29:23.941Z,88.13
2022-12-17T18:31:52.106Z,88.46
2022-12-17T18:34:23.288Z,88.45
2022-12-17T18:36:50.352Z,88.40
2022-12-17T18:39:19.298Z,88.83
2022-12-17T18:42:06.086Z,88.83
2022-12-17T18:44:34.039Z,87.86
2022-12-17T18:47:00.559Z,87.50
2022-12-17T18:49:26.912Z,87.73
2022-12-17T18:51:54.733Z,88.01
2022-12-17T18:54:26.467Z,88.20
2022-12-17T18:57:02.845Z,88.64
2022-12-17T18:59:30.520Z,89.02
2022-12-17T19:01:58.447Z,89.28
2022-12-17T19:04:26.052Z,89.24
2022-12-17T19:06:53.575Z,89.39
2022-12-17T19:09:25.918Z,89.10
2022-12-17T19:11:52.683Z,89.82
2022-12-17T19:14:21.933Z,89.90
2022-12-17T19:16:48.807Z,89.58
2022-12-17T19:19:15.145Z,90.31
2022-12-17T19:21:42.054Z,90.83
2022-12-17T19:24:12.128Z,90.92
2022-12-17T19:26:38.487Z,90.93
2022-12-17T19:29:05.671Z,90.75
2022-12-17T19:31:32.271Z,90.63
2022-12-17T19:34:00.911Z,90.61
2022-12-17T19:36:32.022Z,90.22
2022-12-17T19:39:00.687Z,90.68
2022-12-17T19:41:28.871Z,90.62
2022-12-17T19:43:57.858Z,91.10
2022-12-17T19:46:25.063Z,90.13
2022-12-17T19:48:52.480Z,89.90
2022-12-17T19:51:22.707Z,89.97
2022-12-17T19:53:49.776Z,89.92
2022-12-17T19:56:27.406Z,90.12
2022-12-17T19:58:56.020Z,89.70
2022-12-17T20:01:28.108Z,89.84
2022-12-17T20:03:55.221Z,90.33
2022-12-17T20:06:24.468Z,90.36
2022-12-17T20:08:51.120Z,90.09
2022-12-17T20:11:33.291Z,90.29
2022-12-17T20:14:04.823Z,90.20
2022-12-17T20:16:33.781Z,90.51
2022-12-17T20:19:01.789Z,90.31
2022-12-17T20:21:28.461Z,90.55
2022-12-17T20:23:54.747Z,90.36
2022-12-17T20:26:21.546Z,90.45
2022-12-17T20:28:47.939Z,90.66
2022-12-17T20:31:14.823Z,91.01
2022-12-17T20:33:41.166Z,90.59
2022-12-17T20:36:14.935Z,90.28
2022-12-17T20:38:43.343Z,90.09
2022-12-17T20:41:16.010Z,90.20
2022-12-17T20:43:42.976Z,90.04
2022-12-17T20:46:10.173Z,90.26
2022-12-17T20:48:41.518Z,90.39
2022-12-17T20:51:09.733Z,90.71
2022-12-17T20:53:38.910Z,90.96
2022-12-17T20:56:11.366Z,91.42
2022-12-17T20:58:38.839Z,91.32
2022-12-17T21:01:18.533Z,91.50
2022-12-17T21:03:45.524Z,91.39
2022-12-17T21:06:19.746Z,91.57
2022-12-17T21:08:51.528Z,91.53
2022-12-17T21:11:20.031Z,91.82
2022-12-17T21:13:47.074Z,92.32
2022-12-17T21:16:16.777Z,92.53
2022-12-17T21:18:43.274Z,92.19
2022-12-17T21:21:18.202Z,92.34
2022-12-17T21:23:45.889Z,92.16
2022-12-17T21:26:18.251Z,92.20
2022-12-17T21:28:46.714Z,91.58
2022-12-17T21:31:22.353Z,90.17
2022-12-17T21:33:50.082Z,90.29
2022-12-17T21:36:18.764Z,90.65
2022-12-17T21:38:45.682Z,90.42
2022-12-17T21:41:21.431Z,91.02
2022-12-17T21:43:48.122Z,91.27
2022-12-17T21:46:14.549Z,90.87
2022-12-17T21:48:42.609Z,90.90
2022-12-17T21:51:11.932Z,91.05
2022-12-17T21:53:42.641Z,90.91
2022-12-17T21:56:14.665Z,90.76
2022-12-17T21:58:42.968Z,91.04
2022-12-17T22:01:22.002Z,91.34
2022-12-17T22:03:53.917Z,91.00
2022-12-17T22:06:25.687Z,90.10
2022-12-17T22:09:01.821Z,90.48
2022-12-17T22:11:33.037Z,90.12
2022-12-17T22:14:07.396Z,90.32
2022-12-17T22:16:43.320Z,90.22
2022-12-17T22:19:11.957Z,90.35
2022-12-17T22:21:40.966Z,89.67
2022-12-17T22:24:11.822Z,89.61
2022-12-17T22:26:38.063Z,90.05
2022-12-17T22:29:04.378Z,90.14
2022-12-17T22:31:49.262Z,89.76
2022-12-17T22:35:34.075Z,89.78
2022-12-17T22:41:08.084Z,90.21
2022-12-17T22:44:29.590Z,90.33
2022-12-17T22:44:38.735Z,90.74
2022-12-17T22:45:41.549Z,90.93
2022-12-17T22:48:09.672Z,90.55
2022-12-17T22:50:42.295Z,90.88
2022-12-17T22:53:16.746Z,90.89
2022-12-17T22:55:43.547Z,91.08
2022-12-17T22:58:10.316Z,90.81
2022-12-17T23:00:36.706Z,90.85
2022-12-17T23:03:03.906Z,90.86
2022-12-17T23:05:31.279Z,90.54
2022-12-17T23:07:58.159Z,90.61
2022-12-17T23:10:26.360Z,90.53
2022-12-17T23:12:54.929Z,90.55
2022-12-17T23:15:34.386Z,90.80
2022-12-17T23:18:02.995Z,90.67
2022-12-17T23:20:31.143Z,90.41
2022-12-17T23:22:57.883Z,89.95
2022-12-17T23:25:25.391Z,90.16
2022-12-17T23:27:52.277Z,89.41
2022-12-17T23:30:19.182Z,89.25
2022-12-17T23:32:45.936Z,89.69
2022-12-17T23:35:12.998Z,89.43
2022-12-17T23:37:40.565Z,88.97
2022-12-17T23:40:09.740Z,89.35
2022-12-17T23:42:36.066Z,89.87
2022-12-17T23:45:02.527Z,89.81
2022-12-17T23:47:28.976Z,90.12
2022-12-17T23:49:55.270Z,90.23
2022-12-17T23:52:21.571Z,90.10
2022-12-17T23:54:47.857Z,90.29
2022-12-17T23:57:14.203Z,90.26
2022-12-17T23:59:40.585Z,90.34
